sensor_id;sensor_type;location;lat;lon;timestamp;P1;durP1;ratioP1;P2;durP2;ratioP2
37973;SDS011;23796;51.458;7.000;2022-12-07T00:01:23;10.15;;;9.05;;
37973;SDS011;23796;51.458;7.000;2022-12-07T00:03:50;9.63;;;8.63;;
37973;SDS011;23796;51.458;7.000;2022-12-07T00:06:17;11.88;;;8.93;;
37973;SDS011;23796;51.458;7.000;2022-12-07T00:08:44;10.90;;;8.75;;
37973;SDS011;23796;51.458;7.000;2022-12-07T00:11:14;11.05;;;8.95;;
37973;SDS011;23796;51.458;7.000;2022-12-07T00:13:41;11.82;;;8.25;;
37973;SDS011;23796;51.458;7.000;2022-12-07T00:18:38;9.98;;;8.45;;
37973;SDS011;23796;51.458;7.000;2022-12-07T00:21:14;12.60;;;9.48;;
37973;SDS011;23796;51.458;7.000;2022-12-07T00:23:42;9.23;;;8.20;;
37973;SDS011;23796;51.458;7.000;2022-12-07T00:26:14;10.00;;;8.80;;
37973;SDS011;23796;51.458;7.000;2022-12-07T00:28:47;10.38;;;9.27;;
37973;SDS011;23796;51.458;7.000;2022-12-07T00:31:16;10.65;;;9.55;;
37973;SDS011;23796;51.458;7.000;2022-12-07T00:33:43;13.45;;;10.77;;
37973;SDS011;23796;51.458;7.000;2022-12-07T00:36:10;13.75;;;11.23;;
37973;SDS011;23796;51.458;7.000;2022-12-07T00:38:38;13.30;;;12.00;;
37973;SDS011;23796;51.458;7.000;2022-12-07T00:41:06;14.27;;;11.23;;
37973;SDS011;23796;51.458;7.000;2022-12-07T00:43:42;15.38;;;13.20;;
37973;SDS011;23796;51.458;7.000;2022-12-07T00:46:08;15.75;;;13.98;;
37973;SDS011;23796;51.458;7.000;2022-12-07T00:48:36;15.73;;;12.45;;
37973;SDS011;23796;51.458;7.000;2022-12-07T00:51:04;15.10;;;12.30;;
37973;SDS011;23796;51.458;7.000;2022-12-07T00:53:31;17.58;;;11.70;;
37973;SDS011;23796;51.458;7.000;2022-12-07T00:56:05;14.75;;;12.82;;
37973;SDS011;23796;51.458;7.000;2022-12-07T00:58:36;17.15;;;13.63;;
37973;SDS011;23796;51.458;7.000;2022-12-07T01:01:02;14.65;;;13.05;;
37973;SDS011;23796;51.458;7.000;2022-12-07T01:03:31;16.33;;;14.13;;
37973;SDS011;23796;51.458;7.000;2022-12-07T01:05:57;15.55;;;14.02;;
37973;SDS011;23796;51.458;7.000;2022-12-07T01:08:24;17.67;;;14.25;;
37973;SDS011;23796;51.458;7.000;2022-12-07T01:10:57;16.90;;;14.95;;
37973;SDS011;23796;51.458;7.000;2022-12-07T01:13:31;17.92;;;14.55;;
37973;SDS011;23796;51.458;7.000;2022-12-07T01:15:58;17.08;;;14.82;;
37973;SDS011;23796;51.458;7.000;2022-12-07T01:18:25;17.15;;;15.35;;
37973;SDS011;23796;51.458;7.000;2022-12-07T01:21:05;18.75;;;15.57;;
37973;SDS011;23796;51.458;7.000;2022-12-07T01:23:34;16.85;;;14.35;;
37973;SDS011;23796;51.458;7.000;2022-12-07T01:26:12;16.92;;;15.00;;
37973;SDS011;23796;51.458;7.000;2022-12-07T01:28:39;19.88;;;16.45;;
37973;SDS011;23796;51.458;7.000;2022-12-07T01:31:06;18.13;;;15.30;;
37973;SDS011;23796;51.458;7.000;2022-12-07T01:33:36;17.35;;;15.48;;
37973;SDS011;23796;51.458;7.000;2022-12-07T01:36:07;17.92;;;15.40;;
37973;SDS011;23796;51.458;7.000;2022-12-07T01:38:44;18.25;;;15.45;;
37973;SDS011;23796;51.458;7.000;2022-12-07T01:41:11;20.05;;;15.23;;
37973;SDS011;23796;51.458;7.000;2022-12-07T01:43:36;20.27;;;16.52;;
37973;SDS011;23796;51.458;7.000;2022-12-07T01:46:26;17.70;;;15.80;;
37973;SDS011;23796;51.458;7.000;2022-12-07T01:48:52;18.25;;;16.33;;
37973;SDS011;23796;51.458;7.000;2022-12-07T01:51:20;18.02;;;15.60;;
37973;SDS011;23796;51.458;7.000;2022-12-07T01:53:45;17.95;;;15.43;;
37973;SDS011;23796;51.458;7.000;2022-12-07T01:56:13;17.85;;;15.82;;
37973;SDS011;23796;51.458;7.000;2022-12-07T01:58:45;18.63;;;16.67;;
37973;SDS011;23796;51.458;7.000;2022-12-07T02:01:11;18.83;;;16.70;;
37973;SDS011;23796;51.458;7.000;2022-12-07T02:03:41;20.48;;;16.27;;
37973;SDS011;23796;51.458;7.000;2022-12-07T02:06:10;18.00;;;15.15;;
37973;SDS011;23796;51.458;7.000;2022-12-07T02:08:38;17.70;;;15.05;;
37973;SDS011;23796;51.458;7.000;2022-12-07T02:11:04;16.88;;;15.18;;
37973;SDS011;23796;51.458;7.000;2022-12-07T02:13:32;17.90;;;16.00;;
37973;SDS011;23796;51.458;7.000;2022-12-07T02:32:26;22.40;;;16.73;;
37973;SDS011;23796;51.458;7.000;2022-12-07T02:35:15;17.80;;;15.82;;
37973;SDS011;23796;51.458;7.000;2022-12-07T02:37:51;18.73;;;16.73;;
37973;SDS011;23796;51.458;7.000;2022-12-07T02:43:08;19.63;;;15.20;;
37973;SDS011;23796;51.458;7.000;2022-12-07T02:46:01;20.10;;;16.52;;
37973;SDS011;23796;51.458;7.000;2022-12-07T02:48:40;19.40;;;15.98;;
37973;SDS011;23796;51.458;7.000;2022-12-07T02:51:10;18.00;;;15.15;;
37973;SDS011;23796;51.458;7.000;2022-12-07T03:04:02;19.02;;;14.23;;
37973;SDS011;23796;51.458;7.000;2022-12-07T03:06:42;15.73;;;13.50;;
37973;SDS011;23796;51.458;7.000;2022-12-07T03:15:12;15.43;;;12.57;;
37973;SDS011;23796;51.458;7.000;2022-12-07T03:17:45;15.18;;;12.63;;
37973;SDS011;23796;51.458;7.000;2022-12-07T03:20:13;16.15;;;11.73;;
37973;SDS011;23796;51.458;7.000;2022-12-07T03:22:44;16.60;;;13.02;;
37973;SDS011;23796;51.458;7.000;2022-12-07T03:25:11;16.13;;;14.25;;
37973;SDS011;23796;51.458;7.000;2022-12-07T03:27:42;20.88;;;14.85;;
37973;SDS011;23796;51.458;7.000;2022-12-07T03:30:14;19.33;;;14.88;;
37973;SDS011;23796;51.458;7.000;2022-12-07T03:35:25;21.73;;;15.20;;
37973;SDS011;23796;51.458;7.000;2022-12-07T03:43:17;18.73;;;15.30;;
37973;SDS011;23796;51.458;7.000;2022-12-07T03:45:48;18.25;;;14.35;;
37973;SDS011;23796;51.458;7.000;2022-12-07T03:53:51;18.85;;;14.98;;
37973;SDS011;23796;51.458;7.000;2022-12-07T03:56:29;18.75;;;15.05;;
37973;SDS011;23796;51.458;7.000;2022-12-07T03:58:55;21.40;;;14.48;;
37973;SDS011;23796;51.458;7.000;2022-12-07T04:01:22;19.85;;;15.43;;
37973;SDS011;23796;51.458;7.000;2022-12-07T04:03:48;19.52;;;14.68;;
37973;SDS011;23796;51.458;7.000;2022-12-07T04:06:13;18.58;;;15.32;;
37973;SDS011;23796;51.458;7.000;2022-12-07T04:08:39;19.40;;;15.02;;
37973;SDS011;23796;51.458;7.000;2022-12-07T04:11:05;19.20;;;14.98;;
37973;SDS011;23796;51.458;7.000;2022-12-07T04:13:32;21.67;;;14.18;;
37973;SDS011;23796;51.458;7.000;2022-12-07T04:16:18;18.75;;;14.30;;
37973;SDS011;23796;51.458;7.000;2022-12-07T04:18:46;18.45;;;14.48;;
37973;SDS011;23796;51.458;7.000;2022-12-07T04:21:12;19.83;;;13.35;;
37973;SDS011;23796;51.458;7.000;2022-12-07T04:23:37;18.65;;;13.38;;
37973;SDS011;23796;51.458;7.000;2022-12-07T04:26:05;17.60;;;12.43;;
37973;SDS011;23796;51.458;7.000;2022-12-07T04:28:34;18.45;;;12.93;;
37973;SDS011;23796;51.458;7.000;2022-12-07T04:31:01;15.80;;;12.10;;
37973;SDS011;23796;51.458;7.000;2022-12-07T04:33:27;17.38;;;12.50;;
37973;SDS011;23796;51.458;7.000;2022-12-07T04:35:53;16.33;;;12.60;;
37973;SDS011;23796;51.458;7.000;2022-12-07T04:38:18;15.60;;;12.40;;
37973;SDS011;23796;51.458;7.000;2022-12-07T04:40:46;16.10;;;12.43;;
37973;SDS011;23796;51.458;7.000;2022-12-07T04:43:11;20.33;;;12.95;;
37973;SDS011;23796;51.458;7.000;2022-12-07T04:45:37;16.27;;;12.18;;
37973;SDS011;23796;51.458;7.000;2022-12-07T04:48:03;18.23;;;14.05;;
37973;SDS011;23796;51.458;7.000;2022-12-07T04:50:28;18.95;;;12.20;;
37973;SDS011;23796;51.458;7.000;2022-12-07T04:52:54;20.85;;;14.80;;
37973;SDS011;23796;51.458;7.000;2022-12-07T04:55:22;16.00;;;12.73;;
37973;SDS011;23796;51.458;7.000;2022-12-07T04:57:50;16.70;;;12.02;;
37973;SDS011;23796;51.458;7.000;2022-12-07T05:00:15;16.75;;;12.15;;
37973;SDS011;23796;51.458;7.000;2022-12-07T05:02:41;16.95;;;12.43;;
37973;SDS011;23796;51.458;7.000;2022-12-07T05:05:07;18.45;;;12.85;;
37973;SDS011;23796;51.458;7.000;2022-12-07T05:07:35;15.13;;;11.80;;
37973;SDS011;23796;51.458;7.000;2022-12-07T05:10:00;14.00;;;11.48;;
37973;SDS011;23796;51.458;7.000;2022-12-07T05:12:28;15.55;;;12.10;;
37973;SDS011;23796;51.458;7.000;2022-12-07T05:14:54;16.33;;;12.25;;
37973;SDS011;23796;51.458;7.000;2022-12-07T05:17:21;15.25;;;12.07;;
37973;SDS011;23796;51.458;7.000;2022-12-07T05:19:47;17.05;;;12.63;;
37973;SDS011;23796;51.458;7.000;2022-12-07T05:22:13;15.60;;;11.95;;
37973;SDS011;23796;51.458;7.000;2022-12-07T05:24:39;15.00;;;11.73;;
37973;SDS011;23796;51.458;7.000;2022-12-07T05:27:04;15.00;;;11.65;;
37973;SDS011;23796;51.458;7.000;2022-12-07T05:29:32;15.60;;;11.88;;
37973;SDS011;23796;51.458;7.000;2022-12-07T05:31:58;14.40;;;11.48;;
37973;SDS011;23796;51.458;7.000;2022-12-07T05:34:24;16.02;;;11.13;;
37973;SDS011;23796;51.458;7.000;2022-12-07T05:36:52;14.20;;;10.68;;
37973;SDS011;23796;51.458;7.000;2022-12-07T05:39:17;14.75;;;10.20;;
37973;SDS011;23796;51.458;7.000;2022-12-07T05:41:45;15.63;;;10.25;;
37973;SDS011;23796;51.458;7.000;2022-12-07T05:44:30;12.77;;;9.55;;
37973;SDS011;23796;51.458;7.000;2022-12-07T05:46:55;16.27;;;9.90;;
37973;SDS011;23796;51.458;7.000;2022-12-07T05:49:21;11.75;;;9.35;;
37973;SDS011;23796;51.458;7.000;2022-12-07T05:51:49;13.25;;;10.30;;
37973;SDS011;23796;51.458;7.000;2022-12-07T05:54:17;13.60;;;10.40;;
37973;SDS011;23796;51.458;7.000;2022-12-07T05:56:43;13.73;;;9.18;;
37973;SDS011;23796;51.458;7.000;2022-12-07T05:59:08;16.55;;;9.57;;
37973;SDS011;23796;51.458;7.000;2022-12-07T06:01:57;16.13;;;10.48;;
37973;SDS011;23796;51.458;7.000;2022-12-07T06:04:27;17.20;;;10.85;;
37973;SDS011;23796;51.458;7.000;2022-12-07T06:06:55;13.85;;;10.23;;
37973;SDS011;23796;51.458;7.000;2022-12-07T06:09:26;15.05;;;10.27;;
37973;SDS011;23796;51.458;7.000;2022-12-07T06:11:53;15.73;;;10.07;;
37973;SDS011;23796;51.458;7.000;2022-12-07T06:14:37;15.98;;;9.77;;
37973;SDS011;23796;51.458;7.000;2022-12-07T06:17:05;13.48;;;10.15;;
37973;SDS011;23796;51.458;7.000;2022-12-07T06:19:31;16.63;;;9.73;;
37973;SDS011;23796;51.458;7.000;2022-12-07T06:21:57;14.30;;;9.45;;
37973;SDS011;23796;51.458;7.000;2022-12-07T06:24:24;13.40;;;9.45;;
37973;SDS011;23796;51.458;7.000;2022-12-07T06:26:50;13.70;;;9.15;;
37973;SDS011;23796;51.458;7.000;2022-12-07T06:29:16;17.73;;;9.40;;
37973;SDS011;23796;51.458;7.000;2022-12-07T06:31:49;15.60;;;10.13;;
37973;SDS011;23796;51.458;7.000;2022-12-07T06:34:15;13.93;;;8.85;;
37973;SDS011;23796;51.458;7.000;2022-12-07T06:36:43;17.23;;;11.77;;
37973;SDS011;23796;51.458;7.000;2022-12-07T06:39:09;16.15;;;10.27;;
37973;SDS011;23796;51.458;7.000;2022-12-07T06:41:40;14.85;;;10.32;;
37973;SDS011;23796;51.458;7.000;2022-12-07T06:44:06;14.00;;;10.23;;
37973;SDS011;23796;51.458;7.000;2022-12-07T06:46:34;14.88;;;9.20;;
37973;SDS011;23796;51.458;7.000;2022-12-07T06:49:05;15.70;;;8.80;;
37973;SDS011;23796;51.458;7.000;2022-12-07T06:51:35;15.57;;;10.50;;
37973;SDS011;23796;51.458;7.000;2022-12-07T06:54:05;15.38;;;8.70;;
37973;SDS011;23796;51.458;7.000;2022-12-07T06:56:36;12.00;;;8.18;;
37973;SDS011;23796;51.458;7.000;2022-12-07T06:59:02;13.35;;;7.55;;
37973;SDS011;23796;51.458;7.000;2022-12-07T07:01:32;12.88;;;7.57;;
37973;SDS011;23796;51.458;7.000;2022-12-07T07:03:59;14.38;;;8.02;;
37973;SDS011;23796;51.458;7.000;2022-12-07T07:06:24;11.15;;;7.45;;
37973;SDS011;23796;51.458;7.000;2022-12-07T07:08:52;13.63;;;10.05;;
37973;SDS011;23796;51.458;7.000;2022-12-07T07:11:18;17.00;;;10.50;;
37973;SDS011;23796;51.458;7.000;2022-12-07T07:13:46;17.63;;;10.07;;
37973;SDS011;23796;51.458;7.000;2022-12-07T07:16:12;14.35;;;9.23;;
37973;SDS011;23796;51.458;7.000;2022-12-07T07:18:38;13.13;;;9.27;;
37973;SDS011;23796;51.458;7.000;2022-12-07T07:21:03;15.18;;;9.63;;
37973;SDS011;23796;51.458;7.000;2022-12-07T07:23:29;16.80;;;10.60;;
37973;SDS011;23796;51.458;7.000;2022-12-07T07:25:55;14.93;;;10.02;;
37973;SDS011;23796;51.458;7.000;2022-12-07T07:28:21;17.30;;;10.23;;
37973;SDS011;23796;51.458;7.000;2022-12-07T07:30:47;16.10;;;9.52;;
37973;SDS011;23796;51.458;7.000;2022-12-07T07:33:12;14.93;;;9.07;;
37973;SDS011;23796;51.458;7.000;2022-12-07T07:35:38;13.23;;;7.80;;
37973;SDS011;23796;51.458;7.000;2022-12-07T07:38:04;14.00;;;8.05;;
37973;SDS011;23796;51.458;7.000;2022-12-07T07:40:30;11.90;;;8.45;;
37973;SDS011;23796;51.458;7.000;2022-12-07T07:42:59;14.32;;;9.05;;
37973;SDS011;23796;51.458;7.000;2022-12-07T07:45:25;16.75;;;8.95;;
37973;SDS011;23796;51.458;7.000;2022-12-07T07:47:51;13.82;;;7.45;;
37973;SDS011;23796;51.458;7.000;2022-12-07T07:50:20;14.70;;;8.32;;
37973;SDS011;23796;51.458;7.000;2022-12-07T07:52:46;11.32;;;7.97;;
37973;SDS011;23796;51.458;7.000;2022-12-07T07:55:14;12.60;;;7.82;;
37973;SDS011;23796;51.458;7.000;2022-12-07T07:57:42;10.75;;;7.65;;
37973;SDS011;23796;51.458;7.000;2022-12-07T08:00:11;14.65;;;8.40;;
37973;SDS011;23796;51.458;7.000;2022-12-07T08:02:38;11.00;;;7.70;;
37973;SDS011;23796;51.458;7.000;2022-12-07T08:05:07;14.68;;;8.50;;
37973;SDS011;23796;51.458;7.000;2022-12-07T08:07:32;32.05;;;20.20;;
37973;SDS011;23796;51.458;7.000;2022-12-07T08:10:00;12.70;;;8.18;;
37973;SDS011;23796;51.458;7.000;2022-12-07T08:12:26;11.00;;;8.10;;
37973;SDS011;23796;51.458;7.000;2022-12-07T08:14:54;20.48;;;12.57;;
37973;SDS011;23796;51.458;7.000;2022-12-07T08:17:20;26.20;;;17.52;;
37973;SDS011;23796;51.458;7.000;2022-12-07T08:19:45;15.68;;;12.02;;
37973;SDS011;23796;51.458;7.000;2022-12-07T08:22:11;13.02;;;7.50;;
37973;SDS011;23796;51.458;7.000;2022-12-07T08:24:36;12.32;;;6.38;;
37973;SDS011;23796;51.458;7.000;2022-12-07T08:27:02;10.45;;;6.85;;
37973;SDS011;23796;51.458;7.000;2022-12-07T08:29:28;9.75;;;6.60;;
37973;SDS011;23796;51.458;7.000;2022-12-07T08:31:54;10.80;;;6.82;;
37973;SDS011;23796;51.458;7.000;2022-12-07T08:34:20;11.40;;;6.45;;
37973;SDS011;23796;51.458;7.000;2022-12-07T08:36:45;11.90;;;7.43;;
37973;SDS011;23796;51.458;7.000;2022-12-07T08:39:13;13.52;;;6.78;;
37973;SDS011;23796;51.458;7.000;2022-12-07T08:41:39;9.82;;;7.20;;
37973;SDS011;23796;51.458;7.000;2022-12-07T08:44:05;11.35;;;6.53;;
37973;SDS011;23796;51.458;7.000;2022-12-07T08:46:34;11.82;;;7.57;;
37973;SDS011;23796;51.458;7.000;2022-12-07T08:49:15;10.80;;;7.57;;
37973;SDS011;23796;51.458;7.000;2022-12-07T08:51:45;8.88;;;5.70;;
37973;SDS011;23796;51.458;7.000;2022-12-07T08:54:11;12.40;;;6.90;;
37973;SDS011;23796;51.458;7.000;2022-12-07T08:56:40;10.75;;;6.50;;
37973;SDS011;23796;51.458;7.000;2022-12-07T08:59:06;9.93;;;6.32;;
37973;SDS011;23796;51.458;7.000;2022-12-07T09:01:32;11.25;;;6.28;;
37973;SDS011;23796;51.458;7.000;2022-12-07T09:03:58;8.57;;;5.85;;
37973;SDS011;23796;51.458;7.000;2022-12-07T09:06:23;9.00;;;6.80;;
37973;SDS011;23796;51.458;7.000;2022-12-07T09:08:50;9.38;;;6.50;;
37973;SDS011;23796;51.458;7.000;2022-12-07T09:11:20;9.57;;;5.85;;
37973;SDS011;23796;51.458;7.000;2022-12-07T09:13:50;10.50;;;6.57;;
37973;SDS011;23796;51.458;7.000;2022-12-07T09:16:16;9.55;;;6.47;;
37973;SDS011;23796;51.458;7.000;2022-12-07T09:18:41;9.10;;;5.72;;
37973;SDS011;23796;51.458;7.000;2022-12-07T09:21:07;15.13;;;7.40;;
37973;SDS011;23796;51.458;7.000;2022-12-07T09:23:33;8.57;;;5.47;;
37973;SDS011;23796;51.458;7.000;2022-12-07T09:26:02;12.18;;;6.97;;
37973;SDS011;23796;51.458;7.000;2022-12-07T09:28:30;10.60;;;6.70;;
37973;SDS011;23796;51.458;7.000;2022-12-07T09:30:56;10.30;;;6.63;;
37973;SDS011;23796;51.458;7.000;2022-12-07T09:33:21;11.65;;;7.43;;
37973;SDS011;23796;51.458;7.000;2022-12-07T09:35:47;12.15;;;7.70;;
37973;SDS011;23796;51.458;7.000;2022-12-07T09:38:14;8.98;;;6.07;;
37973;SDS011;23796;51.458;7.000;2022-12-07T09:40:41;11.52;;;7.20;;
37973;SDS011;23796;51.458;7.000;2022-12-07T09:43:16;10.30;;;6.35;;
37973;SDS011;23796;51.458;7.000;2022-12-07T09:45:44;12.80;;;7.20;;
37973;SDS011;23796;51.458;7.000;2022-12-07T09:48:18;11.60;;;6.30;;
37973;SDS011;23796;51.458;7.000;2022-12-07T09:50:50;11.02;;;6.65;;
37973;SDS011;23796;51.458;7.000;2022-12-07T09:53:33;10.90;;;6.32;;
37973;SDS011;23796;51.458;7.000;2022-12-07T09:56:03;9.38;;;5.85;;
37973;SDS011;23796;51.458;7.000;2022-12-07T09:58:29;11.82;;;6.32;;
37973;SDS011;23796;51.458;7.000;2022-12-07T10:01:09;11.02;;;6.70;;
37973;SDS011;23796;51.458;7.000;2022-12-07T10:03:41;10.48;;;6.35;;
37973;SDS011;23796;51.458;7.000;2022-12-07T10:06:16;11.07;;;5.95;;
37973;SDS011;23796;51.458;7.000;2022-12-07T10:08:42;12.57;;;6.43;;
37973;SDS011;23796;51.458;7.000;2022-12-07T10:11:10;10.93;;;6.00;;
37973;SDS011;23796;51.458;7.000;2022-12-07T10:13:37;11.63;;;5.82;;
37973;SDS011;23796;51.458;7.000;2022-12-07T10:18:57;12.15;;;7.03;;
37973;SDS011;23796;51.458;7.000;2022-12-07T10:21:41;13.88;;;5.72;;
37973;SDS011;23796;51.458;7.000;2022-12-07T10:24:30;11.27;;;6.13;;
37973;SDS011;23796;51.458;7.000;2022-12-07T10:26:56;14.43;;;5.97;;
37973;SDS011;23796;51.458;7.000;2022-12-07T10:29:23;11.55;;;6.38;;
37973;SDS011;23796;51.458;7.000;2022-12-07T10:31:57;10.43;;;5.28;;
37973;SDS011;23796;51.458;7.000;2022-12-07T10:34:34;10.93;;;5.00;;
37973;SDS011;23796;51.458;7.000;2022-12-07T10:39:55;9.57;;;4.72;;
37973;SDS011;23796;51.458;7.000;2022-12-07T10:42:25;14.40;;;5.00;;
37973;SDS011;23796;51.458;7.000;2022-12-07T10:47:38;13.02;;;5.05;;
37973;SDS011;23796;51.458;7.000;2022-12-07T11:06:37;12.63;;;4.60;;
37973;SDS011;23796;51.458;7.000;2022-12-07T11:14:49;8.38;;;4.10;;
37973;SDS011;23796;51.458;7.000;2022-12-07T11:20:44;11.95;;;4.70;;
37973;SDS011;23796;51.458;7.000;2022-12-07T11:37:45;11.82;;;4.95;;
37973;SDS011;23796;51.458;7.000;2022-12-07T11:43:04;9.40;;;4.32;;
37973;SDS011;23796;51.458;7.000;2022-12-07T11:45:41;11.65;;;4.32;;
37973;SDS011;23796;51.458;7.000;2022-12-07T11:48:17;10.30;;;4.25;;
37973;SDS011;23796;51.458;7.000;2022-12-07T11:50:54;7.90;;;4.32;;
37973;SDS011;23796;51.458;7.000;2022-12-07T11:53:26;8.40;;;4.28;;
37973;SDS011;23796;51.458;7.000;2022-12-07T11:56:14;9.55;;;4.43;;
37973;SDS011;23796;51.458;7.000;2022-12-07T11:58:47;17.77;;;5.05;;
37973;SDS011;23796;51.458;7.000;2022-12-07T12:06:42;9.27;;;3.92;;
37973;SDS011;23796;51.458;7.000;2022-12-07T12:14:29;11.52;;;3.35;;
37973;SDS011;23796;51.458;7.000;2022-12-07T12:17:30;7.88;;;3.50;;
37973;SDS011;23796;51.458;7.000;2022-12-07T12:23:14;11.20;;;4.05;;
37973;SDS011;23796;51.458;7.000;2022-12-07T12:26:00;9.30;;;3.97;;
37973;SDS011;23796;51.458;7.000;2022-12-07T12:28:34;10.93;;;4.13;;
37973;SDS011;23796;51.458;7.000;2022-12-07T12:33:36;9.52;;;3.50;;
37973;SDS011;23796;51.458;7.000;2022-12-07T12:44:08;8.98;;;3.45;;
37973;SDS011;23796;51.458;7.000;2022-12-07T12:49:43;9.75;;;2.97;;
37973;SDS011;23796;51.458;7.000;2022-12-07T12:55:02;9.38;;;3.13;;
37973;SDS011;23796;51.458;7.000;2022-12-07T12:57:38;7.63;;;2.97;;
37973;SDS011;23796;51.458;7.000;2022-12-07T13:00:15;6.47;;;2.35;;
37973;SDS011;23796;51.458;7.000;2022-12-07T13:02:53;9.43;;;3.20;;
37973;SDS011;23796;51.458;7.000;2022-12-07T13:05:23;8.82;;;2.67;;
37973;SDS011;23796;51.458;7.000;2022-12-07T13:07:56;8.73;;;3.80;;
37973;SDS011;23796;51.458;7.000;2022-12-07T13:15:44;13.63;;;3.42;;
37973;SDS011;23796;51.458;7.000;2022-12-07T13:23:57;10.63;;;3.13;;
37973;SDS011;23796;51.458;7.000;2022-12-07T13:39:44;6.37;;;2.37;;
37973;SDS011;23796;51.458;7.000;2022-12-07T13:44:57;11.90;;;3.03;;
37973;SDS011;23796;51.458;7.000;2022-12-07T13:47:49;10.07;;;3.10;;
37973;SDS011;23796;51.458;7.000;2022-12-07T13:50:31;8.73;;;2.40;;
37973;SDS011;23796;51.458;7.000;2022-12-07T13:52:58;6.90;;;2.20;;
37973;SDS011;23796;51.458;7.000;2022-12-07T13:55:25;6.50;;;2.75;;
37973;SDS011;23796;51.458;7.000;2022-12-07T13:57:52;8.57;;;2.67;;
37973;SDS011;23796;51.458;7.000;2022-12-07T14:00:23;6.28;;;2.20;;
37973;SDS011;23796;51.458;7.000;2022-12-07T14:03:33;7.18;;;2.83;;
37973;SDS011;23796;51.458;7.000;2022-12-07T14:05:40;9.57;;;2.80;;
37973;SDS011;23796;51.458;7.000;2022-12-07T14:10:42;8.05;;;2.20;;
37973;SDS011;23796;51.458;7.000;2022-12-07T14:14:06;6.47;;;2.50;;
37973;SDS011;23796;51.458;7.000;2022-12-07T14:19:02;7.30;;;2.60;;
37973;SDS011;23796;51.458;7.000;2022-12-07T14:21:33;7.97;;;2.72;;
37973;SDS011;23796;51.458;7.000;2022-12-07T14:24:12;5.85;;;2.63;;
37973;SDS011;23796;51.458;7.000;2022-12-07T14:26:43;11.85;;;3.42;;
37973;SDS011;23796;51.458;7.000;2022-12-07T14:31:50;6.95;;;3.03;;
37973;SDS011;23796;51.458;7.000;2022-12-07T14:34:16;8.30;;;2.65;;
37973;SDS011;23796;51.458;7.000;2022-12-07T14:36:44;10.20;;;2.58;;
37973;SDS011;23796;51.458;7.000;2022-12-07T14:39:10;8.00;;;3.22;;
37973;SDS011;23796;51.458;7.000;2022-12-07T14:41:35;5.90;;;2.10;;
37973;SDS011;23796;51.458;7.000;2022-12-07T14:44:16;6.97;;;2.08;;
37973;SDS011;23796;51.458;7.000;2022-12-07T14:46:43;8.77;;;2.55;;
37973;SDS011;23796;51.458;7.000;2022-12-07T14:49:13;5.57;;;2.28;;
37973;SDS011;23796;51.458;7.000;2022-12-07T14:51:39;7.28;;;2.97;;
37973;SDS011;23796;51.458;7.000;2022-12-07T14:54:07;6.57;;;2.25;;
37973;SDS011;23796;51.458;7.000;2022-12-07T14:56:44;10.02;;;2.95;;
37973;SDS011;23796;51.458;7.000;2022-12-07T14:59:16;7.60;;;2.20;;
37973;SDS011;23796;51.458;7.000;2022-12-07T15:01:43;8.52;;;2.70;;
37973;SDS011;23796;51.458;7.000;2022-12-07T15:04:11;7.75;;;2.53;;
37973;SDS011;23796;51.458;7.000;2022-12-07T15:06:37;6.57;;;2.45;;
37973;SDS011;23796;51.458;7.000;2022-12-07T15:19:30;7.93;;;2.55;;
37973;SDS011;23796;51.458;7.000;2022-12-07T15:22:02;8.80;;;2.97;;
37973;SDS011;23796;51.458;7.000;2022-12-07T15:25:20;5.82;;;2.10;;
37973;SDS011;23796;51.458;7.000;2022-12-07T15:27:26;7.25;;;2.15;;
37973;SDS011;23796;51.458;7.000;2022-12-07T15:29:58;7.95;;;2.65;;
37973;SDS011;23796;51.458;7.000;2022-12-07T15:32:24;8.48;;;2.65;;
37973;SDS011;23796;51.458;7.000;2022-12-07T15:35:07;8.60;;;2.67;;
37973;SDS011;23796;51.458;7.000;2022-12-07T15:37:57;8.02;;;2.72;;
37973;SDS011;23796;51.458;7.000;2022-12-07T15:40:48;12.35;;;5.50;;
37973;SDS011;23796;51.458;7.000;2022-12-07T15:43:55;9.65;;;2.75;;
37973;SDS011;23796;51.458;7.000;2022-12-07T15:53:48;9.43;;;3.13;;
37973;SDS011;23796;51.458;7.000;2022-12-07T16:03:32;7.30;;;2.88;;
37973;SDS011;23796;51.458;7.000;2022-12-07T16:13:14;8.48;;;3.13;;
37973;SDS011;23796;51.458;7.000;2022-12-07T16:21:55;9.27;;;3.95;;
37973;SDS011;23796;51.458;7.000;2022-12-07T16:24:21;7.53;;;2.92;;
37973;SDS011;23796;51.458;7.000;2022-12-07T16:26:47;7.55;;;3.80;;
37973;SDS011;23796;51.458;7.000;2022-12-07T16:29:16;12.48;;;4.35;;
37973;SDS011;23796;51.458;7.000;2022-12-07T16:31:43;10.77;;;4.13;;
37973;SDS011;23796;51.458;7.000;2022-12-07T16:34:21;13.35;;;5.15;;
37973;SDS011;23796;51.458;7.000;2022-12-07T16:36:49;13.63;;;6.63;;
37973;SDS011;23796;51.458;7.000;2022-12-07T16:39:21;12.48;;;3.45;;
37973;SDS011;23796;51.458;7.000;2022-12-07T16:41:49;9.77;;;3.53;;
37973;SDS011;23796;51.458;7.000;2022-12-07T16:44:15;8.25;;;3.17;;
37973;SDS011;23796;51.458;7.000;2022-12-07T16:46:56;9.00;;;2.90;;
37973;SDS011;23796;51.458;7.000;2022-12-07T16:49:33;11.30;;;3.20;;
37973;SDS011;23796;51.458;7.000;2022-12-07T16:52:11;10.73;;;3.10;;
37973;SDS011;23796;51.458;7.000;2022-12-07T16:54:42;8.00;;;2.60;;
37973;SDS011;23796;51.458;7.000;2022-12-07T17:01:19;10.50;;;2.75;;
37973;SDS011;23796;51.458;7.000;2022-12-07T17:07:22;8.05;;;3.53;;
37973;SDS011;23796;51.458;7.000;2022-12-07T17:09:48;8.15;;;2.70;;
37973;SDS011;23796;51.458;7.000;2022-12-07T17:12:14;10.35;;;2.92;;
37973;SDS011;23796;51.458;7.000;2022-12-07T17:14:39;6.80;;;2.60;;
37973;SDS011;23796;51.458;7.000;2022-12-07T17:17:23;5.90;;;2.78;;
37973;SDS011;23796;51.458;7.000;2022-12-07T17:19:51;8.48;;;2.97;;
37973;SDS011;23796;51.458;7.000;2022-12-07T17:22:17;8.30;;;4.55;;
37973;SDS011;23796;51.458;7.000;2022-12-07T17:24:52;8.52;;;3.05;;
37973;SDS011;23796;51.458;7.000;2022-12-07T17:27:26;8.55;;;2.85;;
37973;SDS011;23796;51.458;7.000;2022-12-07T17:30:02;4.97;;;2.45;;
37973;SDS011;23796;51.458;7.000;2022-12-07T17:32:51;5.95;;;2.67;;
37973;SDS011;23796;51.458;7.000;2022-12-07T17:35:19;9.60;;;3.08;;
37973;SDS011;23796;51.458;7.000;2022-12-07T17:37:47;6.53;;;2.97;;
37973;SDS011;23796;51.458;7.000;2022-12-07T17:40:19;7.35;;;2.50;;
37973;SDS011;23796;51.458;7.000;2022-12-07T17:53:39;6.22;;;3.13;;
37973;SDS011;23796;51.458;7.000;2022-12-07T17:56:13;8.07;;;2.80;;
37973;SDS011;23796;51.458;7.000;2022-12-07T18:03:07;9.82;;;2.95;;
37973;SDS011;23796;51.458;7.000;2022-12-07T18:05:37;4.55;;;2.20;;
37973;SDS011;23796;51.458;7.000;2022-12-07T18:08:14;8.05;;;2.53;;
37973;SDS011;23796;51.458;7.000;2022-12-07T18:10:40;8.68;;;3.33;;
37973;SDS011;23796;51.458;7.000;2022-12-07T18:13:23;6.68;;;2.55;;
37973;SDS011;23796;51.458;7.000;2022-12-07T18:16:12;5.13;;;2.40;;
37973;SDS011;23796;51.458;7.000;2022-12-07T18:18:43;6.50;;;2.30;;
37973;SDS011;23796;51.458;7.000;2022-12-07T18:21:23;5.25;;;2.20;;
37973;SDS011;23796;51.458;7.000;2022-12-07T18:24:00;5.07;;;2.05;;
37973;SDS011;23796;51.458;7.000;2022-12-07T18:26:37;7.05;;;2.30;;
37973;SDS011;23796;51.458;7.000;2022-12-07T18:29:15;6.15;;;1.95;;
37973;SDS011;23796;51.458;7.000;2022-12-07T18:31:44;4.68;;;2.05;;
37973;SDS011;23796;51.458;7.000;2022-12-07T18:34:22;6.07;;;2.13;;
37973;SDS011;23796;51.458;7.000;2022-12-07T18:36:52;3.63;;;1.83;;
37973;SDS011;23796;51.458;7.000;2022-12-07T18:39:18;6.05;;;2.80;;
37973;SDS011;23796;51.458;7.000;2022-12-07T18:41:45;5.68;;;2.47;;